createdAt,value
2019-04-02T00:00:54.955Z,82.10
2019-04-02T00:03:21.447Z,82.70
2019-04-02T00:06:07.594Z,83.60
2019-04-02T00:08:33.802Z,83.20
2019-04-02T00:11:00.698Z,83.20
2019-04-02T00:13:30.571Z,83.70
2019-04-02T00:15:57.253Z,83.50
2019-04-02T00:18:24.543Z,83.80
2019-04-02T00:20:50.802Z,84.00
2019-04-02T00:23:19.568Z,84.50
2019-04-02T00:25:45.912Z,84.20
2019-04-02T00:28:12.310Z,82.70
2019-04-02T00:30:38.930Z,81.60
2019-04-02T00:33:06.034Z,81.50
2019-04-02T00:35:32.838Z,81.80
2019-04-02T00:38:03.549Z,82.30
2019-04-02T00:40:33.899Z,83.00
2019-04-02T00:43:02.951Z,82.50
2019-04-02T00:45:29.240Z,83.10
2019-04-02T00:47:55.507Z,82.60
2019-04-02T00:50:21.968Z,82.90
2019-04-02T00:52:48.639Z,83.60
2019-04-02T00:55:15.016Z,84.70
2019-04-02T00:57:41.250Z,84.70
2019-04-02T01:00:08.091Z,85.10
2019-04-02T01:02:34.368Z,84.60
2019-04-02T01:05:00.765Z,85.50
2019-04-02T01:07:27.118Z,85.80
2019-04-02T01:09:53.586Z,86.70
2019-04-02T01:12:19.825Z,86.10
2019-04-02T01:14:49.408Z,85.30
2019-04-02T01:17:15.761Z,85.40
2019-04-02T01:19:42.080Z,85.90
2019-04-02T01:22:10.893Z,87.10
2019-04-02T01:24:37.473Z,87.70
2019-04-02T01:27:04.002Z,88.20
2019-04-02T01:29:30.323Z,86.70
2019-04-02T01:31:56.496Z,86.20
2019-04-02T01:34:27.830Z,86.40
2019-04-02T01:36:54.289Z,86.10
2019-04-02T01:39:20.448Z,85.90
2019-04-02T01:41:46.677Z,86.50
2019-04-02T01:44:12.898Z,86.90
2019-04-02T01:46:39.117Z,87.20
2019-04-02T01:49:05.352Z,87.40
2019-04-02T01:51:31.599Z,88.70
2019-04-02T01:53:58.374Z,89.30
2019-04-02T01:56:25.558Z,89.90
2019-04-02T01:58:51.935Z,90.20
2019-04-02T02:01:19.039Z,89.60
2019-04-02T02:03:46.467Z,88.20
2019-04-02T02:06:13.415Z,87.70
2019-04-02T02:08:39.793Z,87.90
2019-04-02T02:11:06.073Z,88.10
2019-04-02T02:13:32.292Z,86.90
2019-04-02T02:15:58.637Z,87.90
2019-04-02T02:18:24.855Z,88.30
2019-04-02T02:20:51.220Z,89.60
2019-04-02T02:23:17.573Z,89.30
2019-04-02T02:25:44.105Z,87.80
2019-04-02T02:28:10.414Z,85.80
2019-04-02T02:30:36.640Z,86.40
2019-04-02T02:33:03.222Z,86.60
2019-04-02T02:35:29.464Z,86.50
2019-04-02T02:37:55.732Z,87.20
2019-04-02T02:40:59.408Z,87.70
2019-04-02T02:43:25.627Z,87.10
2019-04-02T02:45:51.756Z,86.80
2019-04-02T02:48:18.111Z,87.00
2019-04-02T02:50:44.469Z,87.60
2019-04-02T02:53:10.790Z,89.00
2019-04-02T02:55:36.945Z,90.00
2019-04-02T02:58:03.316Z,89.20
2019-04-02T03:00:29.623Z,87.70
2019-04-02T03:02:56.076Z,87.30
2019-04-02T03:05:22.412Z,87.10
2019-04-02T03:07:48.776Z,87.10
2019-04-02T03:10:19.453Z,88.20
2019-04-02T03:12:45.790Z,88.40
2019-04-02T03:15:12.190Z,88.20
2019-04-02T03:17:38.544Z,88.50
2019-04-02T03:20:05.885Z,88.40
2019-04-02T03:22:32.123Z,89.20
2019-04-02T03:24:58.547Z,90.00
2019-04-02T03:27:24.776Z,90.30
2019-04-02T03:29:51.142Z,90.40
2019-04-02T03:32:17.618Z,90.80
2019-04-02T03:34:43.940Z,90.80
2019-04-02T03:37:10.091Z,91.10
2019-04-02T03:39:38.500Z,91.10
2019-04-02T03:42:04.451Z,90.40
2019-04-02T03:44:33.739Z,90.80
2019-04-02T03:46:59.971Z,91.10
2019-04-02T03:49:26.187Z,91.40
2019-04-02T03:51:52.354Z,91.10
2019-04-02T03:54:22.736Z,90.50
2019-04-02T03:56:47.998Z,90.50
2019-04-02T03:59:14.270Z,90.90
2019-04-02T04:01:40.511Z,91.10
2019-04-02T04:04:06.740Z,91.80
2019-04-02T04:06:35.622Z,91.30
2019-04-02T04:09:01.885Z,91.10
2019-04-02T04:11:28.377Z,90.50
2019-04-02T04:13:54.716Z,91.00
2019-04-02T04:16:20.856Z,91.30
2019-04-02T04:18:49.063Z,91.70
2019-04-02T04:21:15.319Z,91.60
2019-04-02T04:23:41.584Z,90.70
2019-04-02T04:26:08.101Z,90.90
2019-04-02T04:28:35.534Z,90.90
2019-04-02T04:31:01.975Z,90.80
2019-04-02T04:33:28.279Z,90.60
2019-04-02T04:35:54.520Z,90.30
2019-04-02T04:38:20.827Z,90.40
2019-04-02T04:40:49.711Z,90.70
2019-04-02T04:43:15.336Z,91.40
2019-04-02T04:45:41.660Z,91.80
2019-04-02T04:48:12.740Z,91.60
2019-04-02T04:50:39.035Z,91.30
2019-04-02T04:53:05.252Z,91.30
2019-04-02T04:55:32.862Z,91.00
2019-04-02T04:57:59.056Z,91.10
2019-04-02T05:00:25.625Z,90.90
2019-04-02T05:02:58.732Z,91.00
2019-04-02T05:05:26.031Z,90.30
2019-04-02T05:07:52.444Z,90.50
2019-04-02T05:10:19.090Z,90.70
2019-04-02T05:12:45.308Z,91.20
2019-04-02T05:15:11.538Z,91.60
2019-04-02T05:17:37.814Z,91.30
2019-04-02T05:20:04.441Z,90.80
2019-04-02T05:22:30.651Z,91.10
2019-04-02T05:24:56.804Z,90.90
2019-04-02T05:27:23.045Z,90.80
2019-04-02T05:29:51.798Z,90.90
2019-04-02T05:32:18.897Z,90.90
2019-04-02T05:34:45.462Z,91.00
2019-04-02T05:37:11.736Z,91.00
2019-04-02T05:39:37.892Z,91.00
2019-04-02T05:42:04.115Z,91.30
2019-04-02T05:44:30.375Z,91.30
2019-04-02T05:46:56.670Z,91.90
2019-04-02T05:49:22.890Z,91.90
2019-04-02T05:51:49.171Z,92.10
2019-04-02T05:54:15.300Z,92.10
2019-04-02T05:56:44.228Z,92.10
2019-04-02T05:59:09.524Z,92.20
2019-04-02T06:01:35.733Z,92.10
2019-04-02T06:04:02.400Z,92.40
2019-04-02T06:06:28.698Z,92.80
2019-04-02T06:08:54.827Z,92.70
2019-04-02T06:11:21.070Z,92.90
2019-04-02T06:13:47.309Z,92.80
2019-04-02T06:16:13.578Z,93.00
2019-04-02T06:18:39.935Z,93.20
2019-04-02T06:21:06.077Z,93.50
2019-04-02T06:23:32.451Z,93.90
2019-04-02T06:25:58.658Z,94.00
2019-04-02T06:28:24.893Z,94.60
2019-04-02T06:30:51.152Z,94.90
2019-04-02T06:33:17.527Z,95.40
2019-04-02T06:35:44.116Z,95.70
2019-04-02T06:38:10.311Z,95.80
2019-04-02T06:40:36.536Z,96.20
2019-04-02T06:43:03.068Z,96.00
2019-04-02T06:45:29.295Z,96.30
2019-04-02T06:48:06.362Z,96.30
2019-04-02T06:50:34.594Z,96.60
2019-04-02T06:53:02.457Z,96.50
2019-04-02T06:55:29.067Z,96.40
2019-04-02T06:57:55.395Z,96.40
2019-04-02T07:00:23.750Z,96.80
2019-04-02T07:02:50.083Z,96.70
2019-04-02T07:05:16.247Z,97.00
2019-04-02T07:07:42.596Z,97.30
2019-04-02T07:10:09.516Z,97.30
2019-04-02T07:12:43.357Z,97.40
2019-04-02T07:15:05.663Z,97.60
2019-04-02T07:17:32.081Z,97.70
2019-04-02T07:19:59.852Z,98.30
2019-04-02T07:22:26.452Z,98.40
2019-04-02T07:24:52.682Z,98.70
2019-04-02T07:27:18.846Z,98.80
2019-04-02T07:29:46.296Z,98.90
2019-04-02T07:32:13.141Z,98.70
2019-04-02T07:34:39.446Z,99.20
2019-04-02T07:37:06.208Z,98.80
2019-04-02T07:39:32.539Z,98.50
2019-04-02T07:41:58.748Z,98.40
2019-04-02T07:44:25.013Z,98.30
2019-04-02T07:46:51.310Z,98.30
2019-04-02T07:49:18.168Z,98.20
2019-04-02T07:51:44.885Z,98.30
2019-04-02T07:54:11.125Z,97.90
2019-04-02T07:56:37.592Z,97.70
2019-04-02T07:59:04.510Z,97.50
2019-04-02T08:01:30.664Z,97.40
2019-04-02T08:03:57.194Z,97.60
2019-04-02T08:06:23.364Z,97.60
2019-04-02T08:08:49.693Z,96.80
2019-04-02T08:11:16.167Z,96.60
2019-04-02T08:13:42.531Z,96.00
2019-04-02T08:16:09.131Z,95.80
2019-04-02T08:18:35.459Z,95.60
2019-04-02T08:21:01.928Z,95.20
2019-04-02T08:23:28.694Z,95.10
2019-04-02T08:25:55.583Z,94.80
2019-04-02T08:28:21.700Z,94.70
2019-04-02T08:30:47.968Z,94.10
2019-04-02T08:33:14.666Z,92.50
2019-04-02T08:35:41.062Z,92.10
2019-04-02T08:38:08.149Z,92.30
2019-04-02T08:40:34.730Z,91.70
2019-04-02T08:43:00.891Z,91.60
2019-04-02T08:45:27.201Z,90.90
2019-04-02T08:47:54.921Z,90.60
2019-04-02T08:50:28.229Z,90.80
2019-04-02T08:52:56.837Z,90.80
2019-04-02T08:55:22.964Z,90.70
2019-04-02T08:57:54.914Z,90.60
2019-04-02T09:00:21.635Z,90.20
2019-04-02T09:02:47.845Z,88.70
2019-04-02T09:05:14.174Z,87.20
2019-04-02T09:07:40.550Z,85.20
2019-04-02T09:10:07.098Z,84.60
2019-04-02T09:12:33.711Z,85.60
2019-04-02T09:15:00.491Z,84.00
2019-04-02T09:17:34.733Z,82.40
2019-04-02T09:19:57.243Z,81.00
2019-04-02T09:22:23.635Z,79.50
2019-04-02T09:24:50.164Z,79.20
2019-04-02T09:27:16.339Z,78.30
2019-04-02T09:29:43.522Z,76.80
2019-04-02T09:32:10.095Z,77.20
2019-04-02T09:34:36.252Z,76.40
2019-04-02T09:37:02.607Z,74.50
2019-04-02T09:39:28.737Z,70.90
2019-04-02T09:41:55.078Z,66.60
2019-04-02T09:44:21.245Z,66.70
2019-04-02T09:46:47.460Z,62.90
2019-04-02T09:49:13.611Z,62.30
2019-04-02T09:51:39.866Z,61.00
2019-04-02T09:54:06.007Z,60.00
2019-04-02T09:56:32.336Z,58.60
2019-04-02T09:58:58.790Z,55.20
2019-04-02T10:01:25.219Z,53.00
2019-04-02T10:03:51.581Z,51.60
2019-04-02T10:06:17.913Z,53.20
2019-04-02T10:08:44.291Z,49.60
2019-04-02T10:11:10.714Z,48.40
2019-04-02T10:13:36.942Z,47.10
2019-04-02T10:16:03.563Z,45.50
2019-04-02T10:18:29.886Z,45.10
2019-04-02T10:20:56.345Z,45.50
2019-04-02T10:23:22.682Z,42.80
2019-04-02T10:25:48.941Z,39.60
2019-04-02T10:28:15.394Z,39.60
2019-04-02T10:30:41.743Z,40.40
2019-04-02T10:33:08.064Z,38.70
2019-04-02T10:35:34.331Z,38.30
2019-04-02T10:38:02.399Z,38.00
2019-04-02T10:40:28.667Z,37.60
2019-04-02T10:42:55.028Z,38.30
2019-04-02T10:45:25.908Z,38.20
2019-04-02T10:47:52.899Z,37.90
2019-04-02T10:50:21.053Z,38.40
2019-04-02T10:52:47.704Z,38.70
2019-04-02T10:55:14.138Z,38.00
2019-04-02T10:57:40.534Z,38.20
2019-04-02T11:00:09.248Z,38.40
2019-04-02T11:02:35.758Z,38.30
2019-04-02T11:05:04.608Z,36.20
2019-04-02T11:07:30.855Z,36.40
2019-04-02T11:09:57.212Z,37.40
2019-04-02T11:12:23.546Z,36.40
2019-04-02T11:14:49.908Z,38.50
2019-04-02T11:17:16.141Z,36.90
2019-04-02T11:19:42.409Z,37.30
2019-04-02T11:22:09.606Z,35.00
2019-04-02T11:24:35.883Z,34.90
2019-04-02T11:27:02.329Z,36.80
2019-04-02T11:29:28.701Z,32.90
2019-04-02T11:31:55.085Z,32.60
2019-04-02T11:34:21.507Z,33.90
2019-04-02T11:36:47.735Z,32.60
2019-04-02T11:39:14.067Z,31.80
2019-04-02T11:41:40.320Z,33.20
2019-04-02T11:44:06.559Z,31.50
2019-04-02T11:46:33.016Z,32.40
2019-04-02T11:49:00.346Z,30.80
2019-04-02T11:51:27.171Z,31.60
2019-04-02T11:53:56.112Z,32.10
2019-04-02T11:56:25.612Z,33.20
2019-04-02T11:58:55.407Z,33.50
2019-04-02T12:01:22.748Z,32.60
2019-04-02T12:03:49.798Z,31.70
2019-04-02T12:06:16.033Z,31.40
2019-04-02T12:08:42.274Z,30.60
2019-04-02T12:11:08.555Z,32.40
2019-04-02T12:13:34.772Z,30.20
2019-04-02T12:16:01.099Z,32.00
2019-04-02T12:18:27.358Z,31.20
2019-04-02T12:20:53.470Z,30.60
2019-04-02T12:23:19.628Z,29.90
2019-04-02T12:25:45.874Z,30.60
2019-04-02T12:28:12.211Z,31.70
2019-04-02T12:30:44.864Z,31.90
2019-04-02T12:33:13.754Z,30.90
2019-04-02T12:35:40.066Z,30.00
2019-04-02T12:38:06.430Z,30.80
2019-04-02T12:40:40.255Z,31.00
2019-04-02T12:43:01.286Z,31.10
2019-04-02T12:45:27.634Z,30.20
2019-04-02T12:47:54.236Z,30.00
2019-04-02T12:50:20.636Z,30.30
2019-04-02T12:52:46.847Z,31.50
2019-04-02T12:55:14.053Z,30.80
2019-04-02T12:57:41.219Z,30.00
2019-04-02T13:00:08.194Z,30.30
2019-04-02T13:02:37.504Z,29.50
2019-04-02T13:05:07.634Z,31.40
2019-04-02T13:07:33.979Z,30.90
2019-04-02T13:10:00.116Z,30.90
2019-04-02T13:12:26.378Z,30.30
2019-04-02T13:14:52.813Z,30.60
2019-04-02T13:17:19.922Z,30.70
2019-04-02T13:19:46.136Z,30.50
2019-04-02T13:22:12.778Z,30.80
2019-04-02T13:24:41.496Z,31.00
2019-04-02T13:27:11.534Z,30.50
2019-04-02T13:29:39.722Z,30.20
2019-04-02T13:32:10.768Z,30.10
2019-04-02T13:34:37.948Z,31.10
2019-04-02T13:37:04.186Z,28.00
2019-04-02T13:39:30.590Z,27.30
2019-04-02T13:42:01.171Z,27.20
2019-04-02T13:44:27.174Z,28.40
2019-04-02T13:46:53.519Z,28.50
2019-04-02T13:49:20.534Z,28.80
2019-04-02T13:52:00.057Z,29.00
2019-04-02T13:54:20.998Z,29.50
2019-04-02T13:56:49.175Z,28.80
2019-04-02T13:59:15.414Z,27.90
2019-04-02T14:01:42.398Z,25.20
2019-04-02T14:04:08.632Z,24.60
2019-04-02T14:06:37.036Z,24.50
2019-04-02T14:09:07.248Z,25.60
2019-04-02T14:11:41.317Z,27.10
2019-04-02T14:14:07.601Z,28.90
2019-04-02T14:16:33.944Z,27.10
2019-04-02T14:19:00.294Z,27.80
2019-04-02T14:21:26.623Z,28.40
2019-04-02T14:23:52.770Z,28.70
2019-04-02T14:26:20.421Z,28.00
2019-04-02T14:28:49.828Z,27.60
2019-04-02T14:31:18.741Z,27.80
2019-04-02T14:33:45.104Z,27.60
2019-04-02T14:36:12.712Z,28.10
2019-04-02T14:38:39.597Z,28.20
2019-04-02T14:41:05.814Z,25.70
2019-04-02T14:43:32.191Z,26.30
2019-04-02T14:45:58.419Z,26.90
2019-04-02T14:48:24.732Z,26.50
2019-04-02T14:50:50.972Z,27.30
2019-04-02T14:53:17.210Z,28.10
2019-04-02T14:55:43.359Z,27.50
2019-04-02T14:58:31.145Z,28.50
2019-04-02T15:00:58.817Z,27.60
2019-04-02T15:03:25.216Z,27.50
2019-04-02T15:05:51.476Z,27.80
2019-04-02T15:08:17.919Z,28.10
2019-04-02T15:10:44.150Z,27.90
2019-04-02T15:13:10.401Z,27.70
2019-04-02T15:15:36.653Z,28.00
2019-04-02T15:18:03.179Z,27.80
2019-04-02T15:20:29.662Z,29.20
2019-04-02T15:22:56.092Z,28.80
2019-04-02T15:25:22.199Z,28.50
2019-04-02T15:27:50.526Z,28.40
2019-04-02T15:30:16.510Z,29.80
2019-04-02T15:32:42.798Z,29.60
2019-04-02T15:35:09.431Z,29.60
2019-04-02T15:37:35.681Z,30.30
2019-04-02T15:40:04.338Z,30.30
2019-04-02T15:42:30.686Z,30.80
2019-04-02T15:44:57.345Z,32.70
2019-04-02T15:47:23.760Z,33.10
2019-04-02T15:49:50.101Z,30.20
2019-04-02T15:52:16.220Z,28.80
2019-04-02T15:54:42.876Z,28.30
2019-04-02T15:57:09.690Z,27.20
2019-04-02T15:59:40.000Z,26.70
2019-04-02T16:02:06.378Z,26.60
2019-04-02T16:04:32.714Z,26.10
2019-04-02T16:06:59.042Z,23.80
2019-04-02T16:09:25.513Z,23.70
2019-04-02T16:11:51.804Z,24.70
2019-04-02T16:14:18.119Z,25.30
2019-04-02T16:16:44.265Z,24.80
2019-04-02T16:19:10.733Z,24.10
2019-04-02T16:21:39.388Z,25.30
2019-04-02T16:24:05.343Z,24.80
2019-04-02T16:26:31.509Z,25.00
2019-04-02T16:28:57.726Z,25.80
2019-04-02T16:31:23.972Z,26.40
2019-04-02T16:33:52.845Z,25.70
2019-04-02T16:36:18.238Z,25.90
2019-04-02T16:38:44.503Z,26.50
2019-04-02T16:41:11.091Z,27.30
2019-04-02T16:43:37.418Z,27.20
2019-04-02T16:46:03.888Z,27.50
2019-04-02T16:48:30.149Z,27.60
2019-04-02T16:50:57.576Z,28.70
2019-04-02T16:53:24.438Z,27.80
2019-04-02T16:55:51.142Z,27.30
2019-04-02T16:58:17.374Z,26.90
2019-04-02T17:00:43.876Z,26.50
2019-04-02T17:03:10.252Z,26.80
2019-04-02T17:05:36.705Z,27.30
2019-04-02T17:08:03.154Z,27.10
2019-04-02T17:10:30.005Z,27.00
2019-04-02T17:12:57.463Z,27.30
2019-04-02T17:15:23.972Z,27.30
2019-04-02T17:17:54.413Z,26.90
2019-04-02T17:20:20.862Z,26.50
2019-04-02T17:22:47.142Z,26.80
2019-04-02T17:25:13.486Z,27.00
2019-04-02T17:27:39.810Z,27.00
2019-04-02T17:30:08.548Z,26.60
2019-04-02T17:32:34.999Z,26.70
2019-04-02T17:35:01.276Z,27.00
2019-04-02T17:37:27.781Z,26.90
2019-04-02T17:39:53.912Z,27.30
2019-04-02T17:42:20.257Z,27.10
2019-04-02T17:44:48.020Z,27.30
2019-04-02T17:47:14.393Z,28.10
2019-04-02T17:49:40.687Z,28.80
2019-04-02T17:52:06.931Z,29.00
2019-04-02T17:54:33.294Z,29.60
2019-04-02T17:56:59.435Z,30.20
2019-04-02T17:59:27.481Z,29.70
2019-04-02T18:01:53.814Z,29.80
2019-04-02T18:04:21.669Z,30.40
2019-04-02T18:06:51.420Z,30.60
2019-04-02T18:09:18.944Z,31.00
2019-04-02T18:11:45.197Z,30.60
2019-04-02T18:14:11.442Z,30.60
2019-04-02T18:16:37.920Z,31.10
2019-04-02T18:19:04.238Z,31.00
2019-04-02T18:21:30.505Z,31.70
2019-04-02T18:23:56.859Z,31.70
2019-04-02T18:26:23.117Z,31.40
2019-04-02T18:28:49.328Z,31.60
2019-04-02T18:31:15.680Z,30.80
2019-04-02T18:33:41.918Z,30.70
2019-04-02T18:36:08.025Z,30.40
2019-04-02T18:38:34.226Z,29.20
2019-04-02T18:41:00.358Z,29.10
2019-04-02T18:43:26.717Z,29.50
2019-04-02T18:45:53.318Z,29.30
2019-04-02T18:48:19.576Z,29.30
2019-04-02T18:50:45.796Z,28.90
2019-04-02T18:53:12.164Z,28.50
2019-04-02T18:55:38.426Z,28.80
2019-04-02T18:58:04.624Z,28.30
2019-04-02T19:00:39.358Z,28.70
2019-04-02T19:03:05.711Z,28.60
2019-04-02T19:05:32.056Z,28.70
2019-04-02T19:07:58.500Z,28.90
2019-04-02T19:10:26.134Z,28.90
2019-04-02T19:12:52.870Z,29.60
2019-04-02T19:15:20.552Z,29.50
2019-04-02T19:17:46.814Z,29.50
2019-04-02T19:20:13.464Z,29.40
2019-04-02T19:22:39.622Z,29.80
2019-04-02T19:25:06.081Z,30.00
2019-04-02T19:27:32.619Z,30.30
2019-04-02T19:29:59.103Z,30.70
2019-04-02T19:32:25.557Z,31.30
2019-04-02T19:34:52.014Z,32.00
2019-04-02T19:37:18.384Z,32.50
2019-04-02T19:39:44.683Z,33.00
2019-04-02T19:42:11.072Z,33.70
2019-04-02T19:44:37.666Z,34.10
2019-04-02T19:47:04.129Z,34.60
2019-04-02T19:49:31.774Z,34.80
2019-04-02T19:51:58.467Z,35.00
2019-04-02T19:54:24.802Z,35.30
2019-04-02T19:56:51.926Z,35.50
2019-04-02T19:59:22.973Z,35.60
2019-04-02T20:01:47.039Z,36.00
2019-04-02T20:04:13.497Z,36.10
2019-04-02T20:06:39.736Z,36.60
2019-04-02T20:09:06.965Z,36.70
2019-04-02T20:11:33.395Z,36.90
2019-04-02T20:14:02.312Z,36.70
2019-04-02T20:16:27.628Z,36.60
2019-04-02T20:18:53.878Z,36.90
2019-04-02T20:21:20.314Z,36.90
2019-04-02T20:23:46.568Z,36.90
2019-04-02T20:26:13.839Z,37.10
2019-04-02T20:28:41.539Z,38.10
2019-04-02T20:31:07.708Z,38.70
2019-04-02T20:33:41.028Z,38.80
2019-04-02T20:36:04.914Z,37.70
2019-04-02T20:38:31.038Z,37.70
2019-04-02T20:40:58.851Z,37.90
2019-04-02T20:43:28.852Z,37.80
2019-04-02T20:45:55.358Z,38.10
2019-04-02T20:48:21.698Z,37.80
2019-04-02T20:50:47.819Z,38.20
2019-04-02T20:53:16.584Z,37.30
2019-04-02T20:55:42.584Z,37.40
2019-04-02T20:58:09.781Z,37.70
2019-04-02T21:00:36.366Z,37.70
2019-04-02T21:03:02.721Z,37.50
2019-04-02T21:05:29.074Z,36.90
2019-04-02T21:07:55.310Z,37.00
2019-04-02T21:10:21.639Z,36.50
2019-04-02T21:12:47.771Z,36.90
2019-04-02T21:15:23.820Z,36.90
2019-04-02T21:17:43.464Z,36.70
2019-04-02T21:20:11.851Z,36.80
2019-04-02T21:22:38.031Z,36.10
2019-04-02T21:25:05.324Z,36.70
2019-04-02T21:27:33.350Z,36.80
2019-04-02T21:29:59.540Z,36.00
2019-04-02T21:32:27.984Z,35.70
2019-04-02T21:34:53.861Z,35.80
2019-04-02T21:37:20.102Z,35.80
2019-04-02T21:39:46.241Z,35.60
2019-04-02T21:42:12.514Z,35.90
2019-04-02T21:44:38.755Z,36.00
2019-04-02T21:47:07.161Z,35.60
2019-04-02T21:49:33.069Z,35.30
2019-04-02T21:51:59.275Z,35.90
2019-04-02T21:54:30.398Z,36.00
2019-04-02T21:56:56.627Z,36.50
2019-04-02T21:59:22.902Z,36.90
2019-04-02T22:01:51.417Z,37.10
2019-04-02T22:04:17.762Z,37.20
2019-04-02T22:06:44.011Z,37.20
2019-04-02T22:09:12.971Z,36.50
2019-04-02T22:11:41.774Z,36.90
2019-04-02T22:14:12.065Z,37.10
2019-04-02T22:16:38.090Z,37.50
2019-04-02T22:19:04.465Z,37.40
2019-04-02T22:21:30.827Z,38.00
2019-04-02T22:23:57.176Z,37.90
2019-04-02T22:26:23.637Z,38.50
2019-04-02T22:28:49.900Z,38.20
2019-04-02T22:31:17.879Z,38.90
2019-04-02T22:33:44.304Z,38.60
2019-04-02T22:36:10.456Z,38.50
2019-04-02T22:38:36.719Z,38.50
2019-04-02T22:41:02.961Z,38.50
2019-04-02T22:43:29.108Z,38.70
2019-04-02T22:45:58.494Z,38.80
2019-04-02T22:48:25.434Z,38.90
2019-04-02T22:50:55.728Z,39.00
2019-04-02T22:53:22.150Z,38.90
2019-04-02T22:55:48.312Z,39.20
2019-04-02T22:58:14.545Z,39.30
2019-04-02T23:00:40.869Z,39.60
2019-04-02T23:03:07.091Z,39.40
2019-04-02T23:05:34.170Z,39.00
2019-04-02T23:08:03.293Z,39.00
2019-04-02T23:10:29.405Z,39.50
2019-04-02T23:12:55.645Z,39.50
2019-04-02T23:15:21.993Z,40.00
2019-04-02T23:17:54.858Z,40.20
2019-04-02T23:20:16.228Z,40.50
2019-04-02T23:22:45.270Z,40.40
2019-04-02T23:25:12.588Z,40.20
2019-04-02T23:27:38.857Z,39.80
2019-04-02T23:30:08.490Z,39.90
2019-04-02T23:32:34.834Z,40.20
2019-04-02T23:35:01.030Z,39.80
2019-04-02T23:37:28.446Z,39.70
2019-04-02T23:39:55.206Z,39.70
2019-04-02T23:42:21.699Z,39.50
2019-04-02T23:44:47.948Z,39.90
2019-04-02T23:47:14.181Z,40.20
2019-04-02T23:49:40.587Z,40.50
2019-04-02T23:52:07.155Z,40.10
2019-04-02T23:54:33.707Z,40.60
2019-04-02T23:57:00.023Z,40.50
2019-04-02T23:59:26.180Z,40.60
